Time;durP1;ratioP1;P1;durP2;ratioP2;P2;SDS_P1;SDS_P2;PMS_P1;PMS_P2;Temp;Humidity;BMP_temperature;BMP_pressure;BME280_temperature;BME280_humidity;BME280_pressure;Samples;Min_cycle;Max_cycle;Signal;HPM_P1;HPM_P2
2022/10/21 00:08:24;;;;;;;54.25;33.55;;;;;;;;;;5280226;27;19995;-80
2022/10/21 00:11:06;;;;;;;38.38;26.80;;;;;;;;;;5300780;27;20028;-80
2022/10/21 00:13:38;;;;;;;47.58;28.95;;;;;;;;;;5326748;27;19980;-80
2022/10/21 00:16:14;;;;;;;52.08;32.33;;;;;;;;;;5326672;27;20048;-80
2022/10/21 00:18:43;;;;;;;48.10;29.77;;;;;;;;;;5326663;27;20079;-80
2022/10/21 00:21:13;;;;;;;43.05;27.75;;;;;;;;;;5306255;27;20007;-80
2022/10/21 00:23:39;;;;;;;35.67;26.40;;;;;;;;;;5328428;27;20026;-80
2022/10/21 00:26:04;;;;;;;48.75;30.17;;;;;;;;;;5326209;27;20004;-80
2022/10/21 00:28:33;;;;;;;37.35;25.58;;;;;;;;;;5327207;27;20085;-80
2022/10/21 00:30:58;;;;;;;39.33;28.52;;;;;;;;;;5307036;27;20078;-80
2022/10/21 00:33:32;;;;;;;49.38;29.25;;;;;;;;;;5326807;27;20005;-80
2022/10/21 00:36:13;;;;;;;54.72;31.45;;;;;;;;;;5327970;27;19993;-80
2022/10/21 00:38:38;;;;;;;42.72;29.73;;;;;;;;;;5332699;26;20016;-74
2022/10/21 00:41:03;;;;;;;46.70;31.12;;;;;;;;;;5348346;26;20310;-74
2022/10/21 00:43:29;;;;;;;47.53;31.77;;;;;;;;;;5348211;26;20008;-73
2022/10/21 00:45:56;;;;;;;46.80;29.92;;;;;;;;;;5329965;26;20047;-73
2022/10/21 00:48:26;;;;;;;47.35;31.55;;;;;;;;;;5350173;26;20179;-72
2022/10/21 00:50:56;;;;;;;38.40;27.55;;;;;;;;;;5349784;26;20005;-73
2022/10/21 00:53:22;;;;;;;42.35;28.08;;;;;;;;;;5347387;26;20000;-74
2022/10/21 00:55:51;;;;;;;31.87;23.75;;;;;;;;;;5350317;26;20004;-73
2022/10/21 00:58:18;;;;;;;46.22;30.50;;;;;;;;;;5347845;26;20083;-73
2022/10/21 01:00:44;;;;;;;34.38;26.27;;;;;;;;;;5349743;26;20001;-74
2022/10/21 01:03:09;;;;;;;41.58;29.08;;;;;;;;;;5347995;26;20007;-73
2022/10/21 01:05:35;;;;;;;35.53;26.62;;;;;;;;;;5347810;26;20000;-73
2022/10/21 01:08:01;;;;;;;36.90;27.83;;;;;;;;;;5329164;26;20038;-73
2022/10/21 01:10:26;;;;;;;39.08;27.52;;;;;;;;;;5329067;26;19996;-72
2022/10/21 01:12:51;;;;;;;47.38;31.17;;;;;;;;;;5349668;26;20004;-73
2022/10/21 01:15:35;;;;;;;43.30;27.98;;;;;;;;;;5351346;26;20022;-73
2022/10/21 01:18:10;;;;;;;42.65;26.40;;;;;;;;;;5331385;26;20128;-73
2022/10/21 01:20:53;;;;;;;39.72;27.42;;;;;;;;;;5349472;26;19999;-72
2022/10/21 01:23:30;;;;;;;43.97;30.05;;;;;;;;;;5352110;26;20005;-72
2022/10/21 01:25:55;;;;;;;;;;;;;;;;;;5350020;26;19996;-72
2022/10/21 01:28:23;;;;;;;54.30;30.62;;;;;;;;;;5348995;26;19969;-73
2022/10/21 01:30:54;;;;;;;44.72;29.80;;;;;;;;;;5329067;26;20000;-73
2022/10/21 01:33:35;;;;;;;38.58;26.70;;;;;;;;;;5349705;26;20011;-73
2022/10/21 01:36:03;;;;;;;56.78;34.40;;;;;;;;;;5349204;26;20028;-73
2022/10/21 01:38:33;;;;;;;56.60;34.03;;;;;;;;;;5348604;26;20382;-74
2022/10/21 01:41:10;;;;;;;44.92;28.45;;;;;;;;;;5349170;26;20049;-73
2022/10/21 01:43:38;;;;;;;75.95;39.72;;;;;;;;;;5349655;26;20005;-74
2022/10/21 01:46:08;;;;;;;44.22;29.80;;;;;;;;;;5348917;26;20015;-73
2022/10/21 01:48:39;;;;;;;49.92;31.15;;;;;;;;;;5351107;26;20023;-72
2022/10/21 01:51:05;;;;;;;55.08;33.33;;;;;;;;;;5350958;26;19992;-72
2022/10/21 01:53:38;;;;;;;50.12;32.13;;;;;;;;;;5348670;26;20032;-72
2022/10/21 01:56:03;;;;;;;39.28;28.40;;;;;;;;;;5349858;26;20015;-73
2022/10/21 01:58:28;;;;;;;;;;;;;;;;;;5349127;26;20374;-73
2022/10/21 02:00:56;;;;;;;37.70;25.88;;;;;;;;;;5348577;26;19968;-73
2022/10/21 02:03:23;;;;;;;55.38;32.33;;;;;;;;;;5330821;26;20159;-73
2022/10/21 02:05:48;;;;;;;50.40;31.50;;;;;;;;;;5351374;26;20424;-73
2022/10/21 02:08:13;;;;;;;47.72;32.00;;;;;;;;;;5349508;26;20001;-73
2022/10/21 02:10:42;;;;;;;31.77;24.60;;;;;;;;;;5350415;26;20012;-73
2022/10/21 02:13:08;;;;;;;39.97;26.37;;;;;;;;;;5348582;26;20008;-73
2022/10/21 02:15:34;;;;;;;45.92;30.40;;;;;;;;;;5330859;26;20348;-73
2022/10/21 02:17:59;;;;;;;;;;;;;;;;;;5348786;26;20012;-72
2022/10/21 02:20:26;;;;;;;32.33;23.27;;;;;;;;;;5328628;26;20308;-73
2022/10/21 02:22:51;;;;;;;40.47;27.55;;;;;;;;;;5350586;26;20008;-73
2022/10/21 02:25:16;;;;;;;;;;;;;;;;;;5348838;26;20084;-73
2022/10/21 02:27:42;;;;;;;43.38;28.23;;;;;;;;;;5348579;26;20242;-72
2022/10/21 02:30:08;;;;;;;40.92;28.48;;;;;;;;;;5350574;26;20001;-72
2022/10/21 02:32:36;;;;;;;33.25;25.50;;;;;;;;;;5349613;26;20001;-73
2022/10/21 02:35:07;;;;;;;33.78;25.48;;;;;;;;;;5328394;26;20417;-72
2022/10/21 02:37:35;;;;;;;44.47;27.83;;;;;;;;;;5348259;26;20019;-72
2022/10/21 02:40:22;;;;;;;45.50;30.17;;;;;;;;;;5348259;26;20062;-73
2022/10/21 02:42:58;;;;;;;61.17;34.80;;;;;;;;;;5347121;26;20045;-74
2022/10/21 02:45:24;;;;;;;40.00;26.83;;;;;;;;;;5330753;26;20009;-74
2022/10/21 02:47:50;;;;;;;37.17;25.50;;;;;;;;;;5350449;26;20043;-73
2022/10/21 02:50:15;;;;;;;;;;;;;;;;;;5350930;26;20066;-73
2022/10/21 02:52:40;;;;;;;46.50;28.08;;;;;;;;;;5350965;26;19936;-73
2022/10/21 02:55:05;;;;;;;46.83;27.75;;;;;;;;;;5349956;26;20362;-73
2022/10/21 02:57:31;;;;;;;45.45;28.95;;;;;;;;;;5348684;26;20059;-73
2022/10/21 02:59:56;;;;;;;36.40;24.55;;;;;;;;;;5348718;26;20033;-74
2022/10/21 03:02:21;;;;;;;40.85;25.30;;;;;;;;;;5348734;26;20015;-74
2022/10/21 03:04:46;;;;;;;31.65;21.90;;;;;;;;;;5350545;26;20283;-73
2022/10/21 03:07:11;;;;;;;49.83;28.95;;;;;;;;;;5348279;26;20001;-73
2022/10/21 03:09:36;;;;;;;36.05;25.15;;;;;;;;;;5328632;26;20024;-74
2022/10/21 03:12:02;;;;;;;45.55;26.83;;;;;;;;;;5350348;26;20006;-73
2022/10/21 03:14:27;;;;;;;46.17;28.17;;;;;;;;;;5349977;26;20344;-74
2022/10/21 03:16:52;;;;;;;37.63;24.83;;;;;;;;;;5348326;26;20027;-73
2022/10/21 03:19:17;;;;;;;31.52;22.35;;;;;;;;;;5350308;26;20051;-73
2022/10/21 03:21:42;;;;;;;42.30;25.62;;;;;;;;;;5348454;26;20447;-73
2022/10/21 03:24:07;;;;;;;;;;;;;;;;;;5348960;26;20342;-72
2022/10/21 03:26:33;;;;;;;21.17;15.88;;;;;;;;;;5347618;26;19952;-74
2022/10/21 03:28:58;;;;;;;37.95;25.10;;;;;;;;;;5349038;26;20047;-73
2022/10/21 03:31:23;;;;;;;44.67;26.05;;;;;;;;;;5348385;26;20397;-72
2022/10/21 03:33:48;;;;;;;41.47;23.45;;;;;;;;;;5350468;26;20055;-72
2022/10/21 03:36:13;;;;;;;46.60;25.90;;;;;;;;;;5350052;26;20000;-72
2022/10/21 03:38:38;;;;;;;24.75;16.23;;;;;;;;;;5349291;26;20379;-73
2022/10/21 03:41:04;;;;;;;52.75;26.45;;;;;;;;;;5350208;26;20001;-72
2022/10/21 03:43:29;;;;;;;44.58;26.17;;;;;;;;;;5347854;26;20420;-72
2022/10/21 03:45:54;;;;;;;36.50;21.40;;;;;;;;;;5349294;26;20045;-72
2022/10/21 03:48:19;;;;;;;29.12;19.08;;;;;;;;;;5349867;26;20026;-71
2022/10/21 03:50:44;;;;;;;47.25;26.87;;;;;;;;;;5350891;26;19996;-73
2022/10/21 03:53:10;;;;;;;28.33;19.90;;;;;;;;;;5350246;26;20058;-72
2022/10/21 03:55:35;;;;;;;29.87;19.33;;;;;;;;;;5348704;26;20025;-73
2022/10/21 03:58:00;;;;;;;41.20;23.87;;;;;;;;;;5350419;26;20067;-74
2022/10/21 04:00:25;;;;;;;;;;;;;;;;;;5348536;26;20000;-73
2022/10/21 04:02:50;;;;;;;30.92;21.00;;;;;;;;;;5327812;26;19989;-73
2022/10/21 04:05:16;;;;;;;46.65;29.00;;;;;;;;;;5350188;26;20424;-73
2022/10/21 04:07:41;;;;;;;51.65;29.15;;;;;;;;;;5347788;26;20133;-74
2022/10/21 04:10:07;;;;;;;41.13;27.62;;;;;;;;;;5347839;26;20004;-73
2022/10/21 04:12:32;;;;;;;52.53;29.02;;;;;;;;;;5350061;26;20000;-73
2022/10/21 04:14:58;;;;;;;;;;;;;;;;;;5349481;26;20007;-73
2022/10/21 04:17:23;;;;;;;48.50;27.17;;;;;;;;;;5347180;26;19962;-72
2022/10/21 04:19:48;;;;;;;45.40;26.62;;;;;;;;;;5348841;26;20368;-72
2022/10/21 04:22:13;;;;;;;47.85;25.85;;;;;;;;;;5347947;26;20000;-73
2022/10/21 04:24:38;;;;;;;35.20;21.83;;;;;;;;;;5349798;26;20012;-72
2022/10/21 04:27:04;;;;;;;33.00;22.05;;;;;;;;;;5348336;26;20099;-72
2022/10/21 04:29:29;;;;;;;50.67;29.10;;;;;;;;;;5350490;26;20015;-72
2022/10/21 04:31:54;;;;;;;41.25;23.08;;;;;;;;;;5347510;26;20054;-72
2022/10/21 04:34:19;;;;;;;40.58;24.77;;;;;;;;;;5349989;26;20023;-72
2022/10/21 04:36:45;;;;;;;42.45;25.77;;;;;;;;;;5348624;26;20034;-73
2022/10/21 04:39:10;;;;;;;34.85;22.98;;;;;;;;;;5347296;26;20123;-73
2022/10/21 04:41:35;;;;;;;42.75;23.77;;;;;;;;;;5347796;26;20001;-72
2022/10/21 04:44:01;;;;;;;45.17;25.98;;;;;;;;;;5348994;26;20369;-72
2022/10/21 04:46:26;;;;;;;41.60;22.87;;;;;;;;;;5349695;26;20015;-74
2022/10/21 04:48:51;;;;;;;49.45;25.25;;;;;;;;;;5350124;26;20013;-74
2022/10/21 04:51:16;;;;;;;41.03;24.85;;;;;;;;;;5330117;26;20132;-73
2022/10/21 04:53:41;;;;;;;37.15;24.42;;;;;;;;;;5347505;26;20006;-73
2022/10/21 04:56:07;;;;;;;40.40;22.92;;;;;;;;;;5347379;26;20011;-73
2022/10/21 04:58:32;;;;;;;39.30;24.05;;;;;;;;;;5350197;26;20040;-73
2022/10/21 05:00:57;;;;;;;43.95;23.17;;;;;;;;;;5348822;26;20010;-73
2022/10/21 05:03:22;;;;;;;45.20;24.52;;;;;;;;;;5347897;26;20000;-73
2022/10/21 05:05:48;;;;;;;36.10;21.33;;;;;;;;;;5347441;26;20092;-72
2022/10/21 05:08:14;;;;;;;39.33;24.17;;;;;;;;;;5329720;26;19996;-74
2022/10/21 05:10:39;;;;;;;;;;;;;;;;;;5329883;26;20328;-73
2022/10/21 05:13:05;;;;;;;42.65;24.23;;;;;;;;;;5348582;26;19938;-73
2022/10/21 05:15:30;;;;;;;38.63;21.48;;;;;;;;;;5348220;26;20001;-73
2022/10/21 05:17:55;;;;;;;43.72;24.23;;;;;;;;;;5349701;26;20005;-72
2022/10/21 05:20:20;;;;;;;31.77;21.12;;;;;;;;;;5348902;26;20032;-72
2022/10/21 05:22:45;;;;;;;42.67;23.40;;;;;;;;;;5349395;26;20000;-72
2022/10/21 05:25:11;;;;;;;38.13;22.27;;;;;;;;;;5346846;26;20031;-72
2022/10/21 05:27:36;;;;;;;35.97;22.65;;;;;;;;;;5348850;26;20000;-72
2022/10/21 05:30:01;;;;;;;37.53;23.08;;;;;;;;;;5349255;26;20012;-72
2022/10/21 05:32:26;;;;;;;34.15;20.52;;;;;;;;;;5347892;26;20000;-72
2022/10/21 05:34:51;;;;;;;41.85;22.67;;;;;;;;;;5349522;26;20008;-72
2022/10/21 05:37:17;;;;;;;40.20;24.23;;;;;;;;;;5349579;26;20005;-72
2022/10/21 05:39:42;;;;;;;32.45;20.10;;;;;;;;;;5346646;26;20416;-71
2022/10/21 05:42:07;;;;;;;36.75;21.95;;;;;;;;;;5327173;26;19999;-70
2022/10/21 05:44:32;;;;;;;44.10;24.20;;;;;;;;;;5348809;26;20000;-71
2022/10/21 05:46:58;;;;;;;35.28;21.85;;;;;;;;;;5349276;26;20000;-71
2022/10/21 05:49:23;;;;;;;36.60;21.98;;;;;;;;;;5346123;26;20011;-70
2022/10/21 05:51:48;;;;;;;40.60;22.42;;;;;;;;;;5347322;26;20062;-71
2022/10/21 05:54:14;;;;;;;43.65;23.10;;;;;;;;;;5348251;26;20011;-70
2022/10/21 05:56:41;;;;;;;47.20;24.85;;;;;;;;;;5347070;26;20038;-72
2022/10/21 05:59:06;;;;;;;48.47;27.42;;;;;;;;;;5348237;26;20008;-71
2022/10/21 06:01:31;;;;;;;;;;;;;;;;;;5350919;26;20044;-72
2022/10/21 06:03:56;;;;;;;37.55;23.00;;;;;;;;;;5350086;26;20296;-73
2022/10/21 06:06:21;;;;;;;30.30;21.12;;;;;;;;;;5348310;26;20000;-71
2022/10/21 06:08:47;;;;;;;37.10;23.10;;;;;;;;;;5350598;26;20401;-71
2022/10/21 06:11:16;;;;;;;33.80;22.08;;;;;;;;;;5347427;26;20027;-71
2022/10/21 06:13:41;;;;;;;47.17;24.90;;;;;;;;;;5346165;26;20031;-72
2022/10/21 06:16:06;;;;;;;;;;;;;;;;;;5350169;26;20027;-72
2022/10/21 06:18:31;;;;;;;38.67;22.13;;;;;;;;;;5349456;26;19949;-70
2022/10/21 06:20:56;;;;;;;45.28;24.23;;;;;;;;;;5348261;26;20088;-71
2022/10/21 06:23:22;;;;;;;35.60;22.58;;;;;;;;;;5345964;26;20011;-71
2022/10/21 06:25:58;;;;;;;39.08;24.17;;;;;;;;;;5348709;26;20000;-70
2022/10/21 06:28:23;;;;;;;47.62;25.58;;;;;;;;;;5347076;26;20049;-70
2022/10/21 06:30:48;;;;;;;47.62;25.92;;;;;;;;;;5348349;26;20382;-70
2022/10/21 06:33:13;;;;;;;;;;;;;;;;;;5348180;26;20402;-71
2022/10/21 06:35:39;;;;;;;43.25;24.15;;;;;;;;;;5348578;26;19954;-72
2022/10/21 06:38:04;;;;;;;39.92;23.80;;;;;;;;;;5327884;26;20051;-71
2022/10/21 06:40:29;;;;;;;42.50;26.92;;;;;;;;;;5349231;26;20050;-71
2022/10/21 06:42:54;;;;;;;48.13;26.85;;;;;;;;;;5349865;26;20305;-73
2022/10/21 06:45:19;;;;;;;40.40;25.37;;;;;;;;;;5349763;26;19996;-71
2022/10/21 06:47:44;;;;;;;37.67;23.98;;;;;;;;;;5347738;26;20368;-72
2022/10/21 06:50:11;;;;;;;37.22;23.35;;;;;;;;;;5350443;26;20428;-71
2022/10/21 06:52:37;;;;;;;40.30;24.55;;;;;;;;;;5348071;26;20000;-71
2022/10/21 06:55:02;;;;;;;;;;;;;;;;;;5349267;26;20306;-70
2022/10/21 06:57:27;;;;;;;34.60;24.10;;;;;;;;;;5350220;26;19954;-70
2022/10/21 06:59:52;;;;;;;39.63;22.90;;;;;;;;;;5349154;26;20062;-71
2022/10/21 07:02:18;;;;;;;49.13;28.92;;;;;;;;;;5350108;26;20362;-71
2022/10/21 07:04:44;;;;;;;35.83;23.90;;;;;;;;;;5349863;26;20012;-70
2022/10/21 07:07:10;;;;;;;45.47;25.77;;;;;;;;;;5348970;26;20000;-71
2022/10/21 07:09:35;;;;;;;50.35;27.65;;;;;;;;;;5330180;26;20011;-70
2022/10/21 07:12:01;;;;;;;;;;;;;;;;;;5350447;26;20043;-71
2022/10/21 07:14:26;;;;;;;33.97;22.83;;;;;;;;;;5330083;26;19934;-71
2022/10/21 07:16:52;;;;;;;40.47;24.45;;;;;;;;;;5350084;26;20004;-71
2022/10/21 07:19:17;;;;;;;42.78;22.00;;;;;;;;;;5348285;26;20012;-70
2022/10/21 07:21:43;;;;;;;;;;;;;;;;;;5350158;26;20000;-71
2022/10/21 07:24:08;;;;;;;43.13;24.45;;;;;;;;;;5348512;26;20301;-70
2022/10/21 07:26:33;;;;;;;;;;;;;;;;;;5350615;26;20353;-71
2022/10/21 07:28:59;;;;;;;47.92;26.35;;;;;;;;;;5348100;26;19949;-71
2022/10/21 07:31:25;;;;;;;39.90;25.90;;;;;;;;;;5347787;26;20000;-71
2022/10/21 07:33:51;;;;;;;39.72;24.80;;;;;;;;;;5347129;26;20487;-71
2022/10/21 07:36:17;;;;;;;;;;;;;;;;;;5347610;26;20004;-71
2022/10/21 07:38:45;;;;;;;44.78;25.62;;;;;;;;;;5349356;26;19942;-71
2022/10/21 07:41:21;;;;;;;50.00;27.42;;;;;;;;;;5349022;26;20009;-71
2022/10/21 07:43:46;;;;;;;46.28;27.13;;;;;;;;;;5346611;26;20023;-70
2022/10/21 07:46:11;;;;;;;41.78;24.00;;;;;;;;;;5347311;26;20015;-70
2022/10/21 07:48:36;;;;;;;;;;;;;;;;;;5349430;26;20000;-70
2022/10/21 07:51:03;;;;;;;36.72;24.27;;;;;;;;;;5348248;26;20277;-71
2022/10/21 07:53:28;;;;;;;39.45;26.35;;;;;;;;;;5348261;26;20000;-71
2022/10/21 07:55:53;;;;;;;;;;;;;;;;;;5350342;26;20302;-73
2022/10/21 07:58:18;;;;;;;33.83;21.60;;;;;;;;;;5327307;26;19939;-72
2022/10/21 08:00:43;;;;;;;45.38;23.73;;;;;;;;;;5347056;26;20060;-71
2022/10/21 08:03:11;;;;;;;43.50;27.33;;;;;;;;;;5349586;26;20000;-72
2022/10/21 08:05:38;;;;;;;39.60;22.62;;;;;;;;;;5347295;26;20000;-71
2022/10/21 08:08:03;;;;;;;30.75;20.80;;;;;;;;;;5350211;26;20056;-71
2022/10/21 08:10:28;;;;;;;;;;;;;;;;;;5348533;26;20084;-72
2022/10/21 08:12:56;;;;;;;32.00;21.27;;;;;;;;;;5346856;26;20340;-74
2022/10/21 08:15:21;;;;;;;30.20;20.52;;;;;;;;;;5348489;26;20071;-72
2022/10/21 08:17:47;;;;;;;36.83;21.95;;;;;;;;;;5326880;26;20344;-72
2022/10/21 08:20:12;;;;;;;37.08;21.87;;;;;;;;;;5347494;26;20000;-72
2022/10/21 08:22:37;;;;;;;39.08;22.70;;;;;;;;;;5348927;26;20007;-72
2022/10/21 08:25:02;;;;;;;28.10;18.75;;;;;;;;;;5347618;26;20012;-71
2022/10/21 08:27:28;;;;;;;28.77;19.37;;;;;;;;;;5347063;26;20035;-71
2022/10/21 08:29:54;;;;;;;32.85;19.67;;;;;;;;;;5349653;26;20380;-71
2022/10/21 08:32:19;;;;;;;;;;;;;;;;;;5348929;26;20034;-73
2022/10/21 08:34:44;;;;;;;28.55;18.48;;;;;;;;;;5348021;26;19927;-73
2022/10/21 08:37:09;;;;;;;34.72;18.12;;;;;;;;;;5348490;26;20119;-73
2022/10/21 08:39:34;;;;;;;31.58;18.62;;;;;;;;;;5326619;26;20390;-74
2022/10/21 08:42:00;;;;;;;27.70;18.27;;;;;;;;;;5346740;26;20384;-73
2022/10/21 08:44:28;;;;;;;33.70;18.15;;;;;;;;;;5348615;26;20000;-74
2022/10/21 08:47:02;;;;;;;25.88;16.65;;;;;;;;;;5347341;26;20000;-73
2022/10/21 08:49:33;;;;;;;26.60;15.80;;;;;;;;;;5349757;26;19989;-73
2022/10/21 08:52:06;;;;;;;23.27;16.27;;;;;;;;;;5326905;26;19999;-74
2022/10/21 08:54:53;;;;;;;20.70;15.75;;;;;;;;;;5325215;26;20027;-73
2022/10/21 08:57:19;;;;;;;21.42;14.65;;;;;;;;;;5329035;26;20011;-73
2022/10/21 08:59:44;;;;;;;22.95;13.77;;;;;;;;;;5346874;26;20001;-74
2022/10/21 09:02:19;;;;;;;22.62;14.68;;;;;;;;;;5326980;26;20004;-73
2022/10/21 09:05:02;;;;;;;21.85;13.60;;;;;;;;;;5347817;26;20009;-73
2022/10/21 09:07:37;;;;;;;21.92;13.90;;;;;;;;;;5327025;26;20034;-73
2022/10/21 09:10:11;;;;;;;21.62;12.95;;;;;;;;;;5347114;26;20319;-74
2022/10/21 09:12:47;;;;;;;16.90;12.37;;;;;;;;;;5347813;26;20000;-73
2022/10/21 09:15:28;;;;;;;18.67;12.68;;;;;;;;;;5326325;26;20321;-73
2022/10/21 09:18:12;;;;;;;24.55;13.40;;;;;;;;;;5348004;26;20008;-73
2022/10/21 09:20:52;;;;;;;21.52;12.25;;;;;;;;;;5327308;26;20001;-73
2022/10/21 09:23:27;;;;;;;19.25;11.63;;;;;;;;;;5326840;26;20000;-73
2022/10/21 09:25:58;;;;;;;18.98;10.18;;;;;;;;;;5347685;26;20364;-74
2022/10/21 09:28:25;;;;;;;20.12;11.57;;;;;;;;;;5349257;26;20012;-74
2022/10/21 09:30:51;;;;;;;14.75;9.65;;;;;;;;;;5347718;26;20040;-73
2022/10/21 09:33:27;;;;;;;20.73;11.38;;;;;;;;;;5328643;26;20004;-75
2022/10/21 09:35:53;;;;;;;;;;;;;;;;;;5328594;26;20007;-74
2022/10/21 09:38:37;;;;;;;21.27;9.80;;;;;;;;;;5350219;26;19991;-74
2022/10/21 09:41:04;;;;;;;13.05;8.25;;;;;;;;;;5327464;26;20024;-73
2022/10/21 09:43:29;;;;;;;14.57;8.23;;;;;;;;;;5348779;26;20010;-74
2022/10/21 09:45:55;;;;;;;15.02;8.95;;;;;;;;;;5349471;26;20001;-74
2022/10/21 09:48:26;;;;;;;15.65;7.85;;;;;;;;;;5348020;26;20023;-73
2022/10/21 09:50:55;;;;;;;13.93;8.55;;;;;;;;;;5350664;26;20381;-74
2022/10/21 09:53:29;;;;;;;17.25;8.25;;;;;;;;;;5348074;26;20000;-74
2022/10/21 09:56:01;;;;;;;14.00;7.90;;;;;;;;;;5348875;26;20000;-75
2022/10/21 09:58:35;;;;;;;17.95;7.75;;;;;;;;;;5350201;26;20326;-74
2022/10/21 10:01:00;;;;;;;14.30;7.80;;;;;;;;;;5348635;26;20000;-75
2022/10/21 10:03:29;;;;;;;18.05;8.48;;;;;;;;;;5350052;26;20427;-75
2022/10/21 10:05:55;;;;;;;14.38;8.15;;;;;;;;;;5349838;26;20031;-75
2022/10/21 10:08:31;;;;;;;14.57;7.00;;;;;;;;;;5348788;26;20510;-75
2022/10/21 10:11:08;;;;;;;14.57;7.43;;;;;;;;;;5350773;26;19996;-73
2022/10/21 10:13:34;;;;;;;13.27;7.82;;;;;;;;;;5348966;26;20004;-74
2022/10/21 10:16:13;;;;;;;13.25;7.30;;;;;;;;;;5348427;26;20007;-74
2022/10/21 10:18:39;;;;;;;13.68;6.93;;;;;;;;;;5349115;26;20019;-75
2022/10/21 10:21:05;;;;;;;13.23;7.22;;;;;;;;;;5347918;26;20000;-74
2022/10/21 10:23:40;;;;;;;11.43;7.60;;;;;;;;;;5348847;26;20004;-73
2022/10/21 10:26:06;;;;;;;16.00;7.05;;;;;;;;;;5348610;26;20350;-73
2022/10/21 10:28:31;;;;;;;11.12;6.22;;;;;;;;;;5328064;26;20068;-73
2022/10/21 10:30:56;;;;;;;10.13;5.93;;;;;;;;;;5348813;26;20000;-74
2022/10/21 10:33:23;;;;;;;9.18;5.50;;;;;;;;;;5328614;26;20052;-74
2022/10/21 10:35:52;;;;;;;11.70;6.20;;;;;;;;;;5349255;26;20018;-73
2022/10/21 10:38:28;;;;;;;12.80;6.32;;;;;;;;;;5347759;26;20014;-73
2022/10/21 10:41:01;;;;;;;13.68;5.62;;;;;;;;;;5348809;26;20020;-72
2022/10/21 10:43:27;;;;;;;12.02;4.72;;;;;;;;;;5348880;26;20074;-74
2022/10/21 10:46:00;;;;;;;12.45;4.87;;;;;;;;;;5350469;26;20111;-74
2022/10/21 10:48:45;;;;;;;9.25;5.25;;;;;;;;;;5349179;26;20003;-74
2022/10/21 10:51:29;;;;;;;11.20;4.55;;;;;;;;;;5349298;26;19988;-74
2022/10/21 10:54:16;;;;;;;6.60;3.90;;;;;;;;;;5327687;26;20004;-74
2022/10/21 10:57:00;;;;;;;12.05;4.57;;;;;;;;;;5350171;26;20035;-75
2022/10/21 10:59:26;;;;;;;12.73;5.05;;;;;;;;;;5347624;26;20011;-75
2022/10/21 11:01:56;;;;;;;12.98;5.82;;;;;;;;;;5347638;26;20043;-74
2022/10/21 11:04:38;;;;;;;9.77;4.32;;;;;;;;;;5348196;26;20019;-75
2022/10/21 11:07:22;;;;;;;9.30;3.80;;;;;;;;;;5348568;26;20014;-75
2022/10/21 11:09:49;;;;;;;9.52;3.30;;;;;;;;;;5347044;26;20018;-74
2022/10/21 11:12:19;;;;;;;13.18;4.55;;;;;;;;;;5349247;26;20020;-74
2022/10/21 11:14:48;;;;;;;7.15;3.95;;;;;;;;;;5348161;26;20015;-74
2022/10/21 11:17:17;;;;;;;8.93;4.10;;;;;;;;;;5348363;26;20018;-74
2022/10/21 11:19:42;;;;;;;9.60;3.62;;;;;;;;;;5327602;26;20008;-74
2022/10/21 11:22:29;;;;;;;11.25;4.12;;;;;;;;;;5347477;26;20038;-76
2022/10/21 11:24:58;;;;;;;11.30;4.72;;;;;;;;;;5347923;26;19999;-74
2022/10/21 11:27:23;;;;;;;12.15;4.15;;;;;;;;;;5347453;26;20329;-74
2022/10/21 11:30:07;;;;;;;7.07;3.83;;;;;;;;;;5348480;26;20010;-74
2022/10/21 11:32:38;;;;;;;9.30;4.47;;;;;;;;;;5348169;26;20153;-74
2022/10/21 11:35:26;;;;;;;8.68;4.00;;;;;;;;;;5348228;26;20062;-73
2022/10/21 11:38:00;;;;;;;10.82;5.07;;;;;;;;;;5347024;26;20081;-73
2022/10/21 11:40:35;;;;;;;11.90;4.00;;;;;;;;;;5347876;26;20019;-74
2022/10/21 11:43:18;;;;;;;9.73;3.65;;;;;;;;;;5348141;26;20351;-74
2022/10/21 11:45:51;;;;;;;10.52;3.72;;;;;;;;;;5347888;26;20000;-74
2022/10/21 11:48:35;;;;;;;9.77;3.75;;;;;;;;;;5348475;26;20037;-75
2022/10/21 11:51:03;;;;;;;7.97;3.03;;;;;;;;;;5347183;26;20011;-75
2022/10/21 11:53:47;;;;;;;9.30;2.87;;;;;;;;;;5347296;26;20001;-76
2022/10/21 11:56:27;;;;;;;7.07;2.95;;;;;;;;;;5346879;26;20409;-75
2022/10/21 11:59:06;;;;;;;8.15;2.83;;;;;;;;;;5327161;26;20294;-74
2022/10/21 12:01:53;;;;;;;8.70;3.67;;;;;;;;;;5347473;26;20103;-73
2022/10/21 12:04:19;;;;;;;;;;;;;;;;;;5327767;26;20061;-73
2022/10/21 12:06:47;;;;;;;7.35;2.40;;;;;;;;;;5347197;26;20026;-74
2022/10/21 12:09:15;;;;;;;5.85;2.25;;;;;;;;;;5347147;26;20011;-74
2022/10/21 12:11:42;;;;;;;11.70;2.97;;;;;;;;;;5349210;26;20000;-72
2022/10/21 12:14:25;;;;;;;9.90;2.47;;;;;;;;;;5347895;26;20410;-72
2022/10/21 12:16:52;;;;;;;9.55;2.83;;;;;;;;;;5347107;26;20026;-73
2022/10/21 12:19:18;;;;;;;10.98;2.67;;;;;;;;;;5328814;26;20016;-73
2022/10/21 12:21:44;;;;;;;6.62;2.80;;;;;;;;;;5347649;26;20004;-72
2022/10/21 12:24:09;;;;;;;6.78;2.97;;;;;;;;;;5347805;26;20012;-72
2022/10/21 12:26:37;;;;;;;8.00;3.17;;;;;;;;;;5327511;26;20426;-73
2022/10/21 12:29:11;;;;;;;9.18;3.35;;;;;;;;;;5350158;26;20507;-72
2022/10/21 12:31:51;;;;;;;5.70;2.30;;;;;;;;;;5350375;26;19993;-72
2022/10/21 12:34:16;;;;;;;8.32;2.75;;;;;;;;;;5347233;26;20015;-73
2022/10/21 12:36:44;;;;;;;9.23;2.50;;;;;;;;;;5348475;26;20046;-74
2022/10/21 12:39:29;;;;;;;7.07;2.87;;;;;;;;;;5346220;26;20024;-74
2022/10/21 12:42:14;;;;;;;10.10;2.53;;;;;;;;;;5348100;26;20009;-74
2022/10/21 12:44:46;;;;;;;6.83;2.53;;;;;;;;;;5349564;26;20009;-74
2022/10/21 12:47:31;;;;;;;6.50;1.95;;;;;;;;;;5348644;26;20373;-74
2022/10/21 12:50:04;;;;;;;6.87;2.80;;;;;;;;;;5347157;26;20000;-74
2022/10/21 12:52:29;;;;;;;7.80;2.65;;;;;;;;;;5349397;26;20000;-74
2022/10/21 12:54:58;;;;;;;5.47;1.85;;;;;;;;;;5347000;26;20011;-73
2022/10/21 12:57:27;;;;;;;5.90;2.10;;;;;;;;;;5327861;26;20004;-75
2022/10/21 13:00:12;;;;;;;7.35;2.67;;;;;;;;;;5349087;26;20036;-74
2022/10/21 13:02:55;;;;;;;6.22;2.45;;;;;;;;;;5327174;26;20351;-74
2022/10/21 13:05:40;;;;;;;8.95;2.62;;;;;;;;;;5350232;26;20011;-74
2022/10/21 13:08:18;;;;;;;7.87;2.67;;;;;;;;;;5309522;26;20057;-75
2022/10/21 13:11:01;;;;;;;3.87;1.87;;;;;;;;;;5348548;26;20000;-73
2022/10/21 13:13:28;;;;;;;7.40;2.55;;;;;;;;;;5349280;26;20317;-73
2022/10/21 13:15:53;;;;;;;4.80;2.75;;;;;;;;;;5348968;26;20011;-73
2022/10/21 13:18:37;;;;;;;6.35;3.78;;;;;;;;;;5351387;26;20005;-74
2022/10/21 13:21:03;;;;;;;4.78;1.85;;;;;;;;;;5349225;26;20026;-75
2022/10/21 13:23:30;;;;;;;4.05;2.30;;;;;;;;;;5350136;26;20015;-75
2022/10/21 13:26:11;;;;;;;16.77;2.12;;;;;;;;;;5348858;26;20000;-73
2022/10/21 13:28:36;;;;;;;3.45;1.80;;;;;;;;;;5349264;26;20401;-76
2022/10/21 13:31:02;;;;;;;9.25;2.15;;;;;;;;;;5350675;26;20032;-74
2022/10/21 13:33:31;;;;;;;4.28;1.90;;;;;;;;;;5349190;26;20047;-74
2022/10/21 13:36:10;;;;;;;7.60;1.80;;;;;;;;;;5350419;26;20287;-74
2022/10/21 13:38:36;;;;;;;7.85;2.30;;;;;;;;;;5347417;26;20378;-73
2022/10/21 13:41:03;;;;;;;5.32;1.90;;;;;;;;;;5347317;26;20422;-73
2022/10/21 13:43:35;;;;;;;5.70;2.42;;;;;;;;;;5350562;26;20019;-73
2022/10/21 13:46:22;;;;;;;7.90;1.95;;;;;;;;;;5351074;26;20008;-74
2022/10/21 13:48:47;;;;;;;9.02;2.22;;;;;;;;;;5328219;26;20000;-74
2022/10/21 13:51:20;;;;;;;6.55;2.42;;;;;;;;;;5349532;26;20026;-74
2022/10/21 13:53:46;;;;;;;4.87;1.90;;;;;;;;;;5348196;26;20004;-73
2022/10/21 13:56:17;;;;;;;5.62;1.75;;;;;;;;;;5348807;26;20054;-74
2022/10/21 13:58:42;;;;;;;6.12;1.98;;;;;;;;;;5329454;26;20023;-75
2022/10/21 14:01:11;;;;;;;4.77;2.40;;;;;;;;;;5348448;26;20000;-75
2022/10/21 14:03:37;;;;;;;5.93;1.90;;;;;;;;;;5347725;26;20111;-75
2022/10/21 14:06:04;;;;;;;4.20;1.60;;;;;;;;;;5348240;26;20000;-75
2022/10/21 14:08:36;;;;;;;5.43;1.98;;;;;;;;;;5350585;26;20015;-75
2022/10/21 14:11:03;;;;;;;6.05;1.87;;;;;;;;;;5349887;26;20075;-75
2022/10/21 14:13:31;;;;;;;4.90;2.03;;;;;;;;;;5350672;26;20035;-75
2022/10/21 14:15:57;;;;;;;4.57;1.85;;;;;;;;;;5328219;26;20011;-74
2022/10/21 14:18:33;;;;;;;4.97;1.80;;;;;;;;;;5349264;26;20008;-75
2022/10/21 14:20:59;;;;;;;3.22;1.65;;;;;;;;;;5349062;26;20017;-74
2022/10/21 14:23:25;;;;;;;8.40;2.15;;;;;;;;;;5328614;26;20008;-74
2022/10/21 14:25:52;;;;;;;7.57;2.67;;;;;;;;;;5327762;26;20020;-74
2022/10/21 14:28:19;;;;;;;4.72;1.83;;;;;;;;;;5348786;26;20016;-73
2022/10/21 14:30:44;;;;;;;3.62;1.83;;;;;;;;;;5347969;26;20388;-73
2022/10/21 14:33:14;;;;;;;6.18;1.58;;;;;;;;;;5347703;26;20058;-74
2022/10/21 14:35:39;;;;;;;4.80;2.30;;;;;;;;;;5344879;26;20027;-73
2022/10/21 14:38:23;;;;;;;8.35;2.08;;;;;;;;;;5348107;26;20012;-73
2022/10/21 14:40:54;;;;;;;5.97;2.17;;;;;;;;;;5348341;26;20027;-73
2022/10/21 14:43:21;;;;;;;4.62;1.70;;;;;;;;;;5327677;26;19992;-73
2022/10/21 14:45:50;;;;;;;4.45;1.73;;;;;;;;;;5328001;26;20019;-73
2022/10/21 14:48:25;;;;;;;6.20;1.87;;;;;;;;;;5348167;26;20030;-73
2022/10/21 14:50:52;;;;;;;7.07;1.90;;;;;;;;;;5348034;26;20023;-73